createdAt,value
2023-06-17T00:01:22.007Z,100.00
2023-06-17T00:03:49.660Z,100.00
2023-06-17T00:06:17.187Z,100.00
2023-06-17T00:08:44.756Z,100.00
2023-06-17T00:11:12.706Z,100.00
2023-06-17T00:13:40.285Z,100.00
2023-06-17T00:16:07.884Z,100.00
2023-06-17T00:18:35.454Z,100.00
2023-06-17T00:21:03.262Z,100.00
2023-06-17T00:23:32.101Z,100.00
2023-06-17T00:25:59.642Z,100.00
2023-06-17T00:28:27.212Z,100.00
2023-06-17T00:30:54.760Z,100.00
2023-06-17T00:33:22.310Z,100.00
2023-06-17T00:35:49.989Z,100.00
2023-06-17T00:38:17.593Z,100.00
2023-06-17T00:40:45.157Z,100.00
2023-06-17T00:43:12.892Z,100.00
2023-06-17T00:45:40.921Z,100.00
2023-06-17T00:48:11.084Z,100.00
2023-06-17T00:50:40.273Z,100.00
2023-06-17T00:53:08.304Z,100.00
2023-06-17T00:55:36.197Z,100.00
2023-06-17T00:58:04.239Z,100.00
2023-06-17T01:00:32.106Z,100.00
2023-06-17T01:02:59.895Z,100.00
2023-06-17T01:05:28.250Z,100.00
2023-06-17T01:08:09.483Z,100.00
2023-06-17T01:10:48.678Z,100.00
2023-06-17T01:13:18.142Z,100.00
2023-06-17T01:15:46.057Z,100.00
2023-06-17T01:18:18.710Z,100.00
2023-06-17T01:20:48.267Z,100.00
2023-06-17T01:23:17.319Z,100.00
2023-06-17T01:25:45.478Z,100.00
2023-06-17T01:28:17.055Z,100.00
2023-06-17T01:30:49.519Z,100.00
2023-06-17T01:33:17.477Z,100.00
2023-06-17T01:35:53.275Z,100.00
2023-06-17T01:38:32.253Z,100.00
2023-06-17T01:41:08.966Z,100.00
2023-06-17T01:43:37.974Z,100.00
2023-06-17T01:46:07.936Z,100.00
2023-06-17T01:48:35.753Z,100.00
2023-06-17T01:51:03.404Z,100.00
2023-06-17T01:53:30.998Z,100.00
2023-06-17T01:55:58.559Z,100.00
2023-06-17T01:58:26.088Z,100.00
2023-06-17T02:00:53.711Z,100.00
2023-06-17T02:03:21.497Z,100.00
2023-06-17T02:05:49.197Z,100.00
2023-06-17T02:08:16.948Z,100.00
2023-06-17T02:10:44.504Z,100.00
2023-06-17T02:13:12.051Z,100.00
2023-06-17T02:15:43.432Z,100.00
2023-06-17T02:18:11.794Z,100.00
2023-06-17T02:20:39.425Z,100.00
2023-06-17T02:23:09.156Z,100.00
2023-06-17T02:25:37.918Z,100.00
2023-06-17T02:28:05.702Z,100.00
2023-06-17T02:30:33.258Z,100.00
2023-06-17T02:33:01.959Z,100.00
2023-06-17T02:35:29.734Z,100.00
2023-06-17T02:37:57.716Z,100.00
2023-06-17T02:40:25.472Z,100.00
2023-06-17T02:42:53.103Z,100.00
2023-06-17T02:45:20.655Z,100.00
2023-06-17T02:47:48.539Z,100.00
2023-06-17T02:50:16.207Z,100.00
2023-06-17T02:52:47.700Z,100.00
2023-06-17T02:55:16.595Z,100.00
2023-06-17T02:57:44.245Z,100.00
2023-06-17T03:00:12.296Z,100.00
2023-06-17T03:02:39.993Z,100.00
2023-06-17T03:05:08.905Z,100.00
2023-06-17T03:07:37.229Z,100.00
2023-06-17T03:10:05.576Z,100.00
2023-06-17T03:12:33.390Z,100.00
2023-06-17T03:15:01.810Z,100.00
2023-06-17T03:17:29.799Z,100.00
2023-06-17T03:19:58.302Z,100.00
2023-06-17T03:22:25.842Z,100.00
2023-06-17T03:24:53.465Z,100.00
2023-06-17T03:27:21.567Z,100.00
2023-06-17T03:29:50.161Z,100.00
2023-06-17T03:32:17.712Z,100.00
2023-06-17T03:34:45.300Z,100.00
2023-06-17T03:37:12.842Z,100.00
2023-06-17T03:39:40.392Z,100.00
2023-06-17T03:42:08.302Z,100.00
2023-06-17T03:44:35.868Z,100.00
2023-06-17T03:47:04.051Z,100.00
2023-06-17T03:49:31.688Z,100.00
2023-06-17T03:51:59.202Z,100.00
2023-06-17T03:54:27.450Z,100.00
2023-06-17T03:56:55.027Z,100.00
2023-06-17T03:59:22.566Z,100.00
2023-06-17T04:01:50.108Z,100.00
2023-06-17T04:04:17.736Z,100.00
2023-06-17T04:06:49.034Z,100.00
2023-06-17T04:09:16.565Z,100.00
2023-06-17T04:11:44.141Z,100.00
2023-06-17T04:14:11.765Z,100.00
2023-06-17T04:16:39.295Z,100.00
2023-06-17T04:19:06.881Z,100.00
2023-06-17T04:21:34.465Z,100.00
2023-06-17T04:24:02.059Z,100.00
2023-06-17T04:26:29.610Z,100.00
2023-06-17T04:28:57.270Z,100.00
2023-06-17T04:31:26.258Z,100.00
2023-06-17T04:33:53.836Z,100.00
2023-06-17T04:36:22.175Z,100.00
2023-06-17T04:38:50.951Z,100.00
2023-06-17T04:41:19.249Z,100.00
2023-06-17T04:43:49.636Z,100.00
2023-06-17T04:46:18.691Z,100.00
2023-06-17T04:48:46.749Z,100.00
2023-06-17T04:51:14.544Z,100.00
2023-06-17T04:53:42.036Z,100.00
2023-06-17T04:56:09.564Z,100.00
2023-06-17T04:58:37.124Z,100.00
2023-06-17T05:01:04.742Z,100.00
2023-06-17T05:03:32.635Z,100.00
2023-06-17T05:06:00.213Z,100.00
2023-06-17T05:08:27.819Z,100.00
2023-06-17T05:10:55.382Z,100.00
2023-06-17T05:13:22.937Z,100.00
2023-06-17T05:15:50.493Z,100.00
2023-06-17T05:18:18.033Z,100.00
2023-06-17T05:20:45.683Z,100.00
2023-06-17T05:23:13.214Z,100.00
2023-06-17T05:25:40.760Z,100.00
2023-06-17T05:28:11.538Z,100.00
2023-06-17T05:30:40.214Z,100.00
2023-06-17T05:33:08.037Z,100.00
2023-06-17T05:35:35.686Z,100.00
2023-06-17T05:38:03.258Z,100.00
2023-06-17T05:40:30.806Z,100.00
2023-06-17T05:42:58.360Z,100.00
2023-06-17T05:45:26.099Z,100.00
2023-06-17T05:47:53.821Z,100.00
2023-06-17T05:50:22.461Z,100.00
2023-06-17T05:52:50.140Z,100.00
2023-06-17T05:55:17.812Z,100.00
2023-06-17T05:57:45.709Z,100.00
2023-06-17T06:00:14.282Z,99.93
2023-06-17T06:02:41.909Z,96.94
2023-06-17T06:05:09.714Z,96.13
2023-06-17T06:07:39.027Z,96.24
2023-06-17T06:10:08.241Z,97.47
2023-06-17T06:12:36.377Z,99.11
2023-06-17T06:15:04.570Z,94.75
2023-06-17T06:17:32.105Z,93.09
2023-06-17T06:19:59.800Z,91.26
2023-06-17T06:22:27.851Z,89.06
2023-06-17T06:24:55.414Z,88.89
2023-06-17T06:27:22.985Z,85.37
2023-06-17T06:29:50.573Z,85.43
2023-06-17T06:32:18.118Z,84.79
2023-06-17T06:34:47.344Z,84.64
2023-06-17T06:37:14.958Z,82.27
2023-06-17T06:39:43.993Z,79.36
2023-06-17T06:42:12.640Z,78.24
2023-06-17T06:44:40.325Z,75.71
2023-06-17T06:47:08.016Z,78.12
2023-06-17T06:49:35.899Z,76.21
2023-06-17T06:52:03.427Z,68.64
2023-06-17T06:54:30.976Z,73.63
2023-06-17T06:56:58.872Z,68.17
2023-06-17T06:59:26.415Z,67.38
2023-06-17T07:01:53.907Z,68.60
2023-06-17T07:04:22.659Z,62.87
2023-06-17T07:06:50.289Z,67.36
2023-06-17T07:09:17.818Z,69.48
2023-06-17T07:11:45.415Z,60.04
2023-06-17T07:14:14.463Z,60.96
2023-06-17T07:16:42.214Z,63.20
2023-06-17T07:19:09.831Z,60.01
2023-06-17T07:21:37.353Z,63.47
2023-06-17T07:24:05.151Z,61.79
2023-06-17T07:26:33.372Z,56.99
2023-06-17T07:29:02.026Z,58.34
2023-06-17T07:31:31.649Z,56.91
2023-06-17T07:34:00.190Z,52.40
2023-06-17T07:36:27.973Z,52.74
2023-06-17T07:38:55.674Z,55.77
2023-06-17T07:41:23.198Z,61.74
2023-06-17T07:43:50.685Z,61.98
2023-06-17T07:46:18.402Z,63.98
2023-06-17T07:48:45.966Z,59.64
2023-06-17T07:51:13.592Z,57.15
2023-06-17T07:53:41.159Z,57.05
2023-06-17T07:56:08.836Z,53.88
2023-06-17T07:58:36.471Z,54.06
2023-06-17T08:01:04.200Z,56.23
2023-06-17T08:03:31.937Z,55.05
2023-06-17T08:05:59.565Z,48.26
2023-06-17T08:08:27.116Z,46.84
2023-06-17T08:10:54.667Z,46.33
2023-06-17T08:13:22.227Z,47.35
2023-06-17T08:15:50.964Z,44.09
2023-06-17T08:18:19.111Z,41.95
2023-06-17T08:20:46.771Z,42.43
2023-06-17T08:23:14.349Z,39.49
2023-06-17T08:25:42.334Z,36.84
2023-06-17T08:28:10.299Z,36.50
2023-06-17T08:30:37.882Z,36.05
2023-06-17T08:33:05.647Z,36.81
2023-06-17T08:35:33.259Z,33.95
2023-06-17T08:38:01.209Z,34.15
2023-06-17T08:40:29.305Z,32.35
2023-06-17T08:43:03.325Z,31.83
2023-06-17T08:45:34.479Z,31.04
2023-06-17T08:48:02.309Z,31.38
2023-06-17T08:50:30.387Z,31.51
2023-06-17T08:52:59.889Z,32.06
2023-06-17T08:55:27.482Z,31.72
2023-06-17T08:57:55.188Z,32.62
2023-06-17T09:00:23.107Z,31.35
2023-06-17T09:02:51.078Z,32.81
2023-06-17T09:05:18.904Z,32.31
2023-06-17T09:07:46.965Z,32.07
2023-06-17T09:10:17.853Z,30.66
2023-06-17T09:12:45.584Z,31.41
2023-06-17T09:15:19.838Z,31.46
2023-06-17T09:17:48.642Z,31.19
2023-06-17T09:20:19.033Z,31.81
2023-06-17T09:22:48.942Z,31.32
2023-06-17T09:25:19.263Z,30.36
2023-06-17T09:28:11.898Z,31.88
2023-06-17T09:30:44.635Z,30.67
2023-06-17T09:33:23.262Z,30.30
2023-06-17T09:36:05.140Z,30.11
2023-06-17T09:38:33.190Z,31.03
2023-06-17T09:41:00.977Z,30.77
2023-06-17T09:43:29.900Z,30.45
2023-06-17T09:46:02.282Z,31.20
2023-06-17T09:48:33.393Z,30.71
2023-06-17T09:51:01.618Z,30.65
2023-06-17T09:53:31.442Z,29.87
2023-06-17T09:56:01.111Z,29.82
2023-06-17T09:58:31.880Z,30.17
2023-06-17T10:01:01.678Z,29.95
2023-06-17T10:03:30.197Z,30.43
2023-06-17T10:06:09.867Z,30.48
2023-06-17T10:08:39.076Z,30.56
2023-06-17T10:11:06.979Z,32.32
2023-06-17T10:13:38.121Z,31.41
2023-06-17T10:16:08.887Z,30.37
2023-06-17T10:18:39.249Z,29.86
2023-06-17T10:21:11.118Z,29.97
2023-06-17T10:23:39.901Z,29.99
2023-06-17T10:26:13.275Z,31.51
2023-06-17T10:28:58.844Z,31.30
2023-06-17T10:31:27.721Z,30.39
2023-06-17T10:33:56.767Z,28.34
2023-06-17T10:36:26.136Z,28.09
2023-06-17T10:39:00.132Z,28.39
2023-06-17T10:41:58.821Z,28.70
2023-06-17T10:44:33.256Z,30.04
2023-06-17T10:47:01.131Z,30.19
2023-06-17T10:49:38.647Z,27.68
2023-06-17T10:52:06.534Z,28.50
2023-06-17T10:54:35.408Z,28.28
2023-06-17T10:57:05.405Z,28.33
2023-06-17T10:59:34.908Z,28.26
2023-06-17T11:02:04.845Z,28.56
2023-06-17T11:04:33.323Z,29.19
2023-06-17T11:07:02.091Z,27.71
2023-06-17T11:09:30.672Z,29.09
2023-06-17T11:11:59.695Z,27.01
2023-06-17T11:14:29.996Z,27.21
2023-06-17T11:16:58.106Z,27.14
2023-06-17T11:19:26.698Z,27.39
2023-06-17T11:22:04.282Z,26.37
2023-06-17T11:24:33.348Z,24.99
2023-06-17T11:27:02.140Z,26.80
2023-06-17T11:29:31.373Z,26.30
2023-06-17T11:32:03.181Z,26.47
2023-06-17T11:34:32.914Z,26.14
2023-06-17T11:37:07.579Z,25.77
2023-06-17T11:39:39.402Z,24.17
2023-06-17T11:42:08.042Z,25.20
2023-06-17T11:44:36.701Z,24.30
2023-06-17T11:47:05.710Z,23.52
2023-06-17T11:49:33.451Z,23.37
2023-06-17T11:52:10.290Z,24.50
2023-06-17T11:54:50.000Z,24.52
2023-06-17T11:57:25.630Z,24.07
2023-06-17T11:59:54.112Z,24.70
2023-06-17T12:02:21.773Z,25.11
2023-06-17T12:04:49.901Z,25.22
2023-06-17T12:07:18.009Z,23.10
2023-06-17T12:09:56.230Z,24.77
2023-06-17T12:12:30.647Z,23.84
2023-06-17T12:15:02.739Z,23.56
2023-06-17T12:17:50.791Z,23.87
2023-06-17T12:20:20.682Z,23.73
2023-06-17T12:22:50.353Z,22.25
2023-06-17T12:25:17.957Z,22.69
2023-06-17T12:27:45.669Z,22.99
2023-06-17T12:30:14.095Z,23.51
2023-06-17T12:32:42.076Z,23.09
2023-06-17T12:35:12.555Z,23.45
2023-06-17T12:37:42.855Z,22.92
2023-06-17T12:40:11.059Z,22.89
2023-06-17T12:42:39.673Z,22.54
2023-06-17T12:45:08.154Z,22.48
2023-06-17T12:47:37.881Z,20.79
2023-06-17T12:50:07.184Z,20.61
2023-06-17T12:52:35.509Z,21.22
2023-06-17T12:55:05.790Z,22.77
2023-06-17T12:57:33.612Z,22.09
2023-06-17T13:00:01.555Z,21.82
2023-06-17T13:02:32.366Z,20.87
2023-06-17T13:05:00.183Z,19.67
2023-06-17T13:07:29.113Z,20.37
2023-06-17T13:09:58.381Z,21.36
2023-06-17T13:12:26.124Z,20.74
2023-06-17T13:14:54.854Z,21.03
2023-06-17T13:17:23.645Z,20.17
2023-06-17T13:19:51.194Z,19.66
2023-06-17T13:22:20.128Z,20.46
2023-06-17T13:24:47.649Z,19.20
2023-06-17T13:27:19.718Z,19.97
2023-06-17T13:29:47.997Z,19.23
2023-06-17T13:32:17.674Z,18.47
2023-06-17T13:34:47.077Z,18.66
2023-06-17T13:37:14.808Z,18.92
2023-06-17T13:39:42.705Z,17.81
2023-06-17T13:42:10.392Z,19.46
2023-06-17T13:44:42.149Z,19.15
2023-06-17T13:47:09.793Z,18.72
2023-06-17T13:49:37.417Z,19.40
2023-06-17T13:52:06.720Z,19.40
2023-06-17T13:54:34.281Z,18.68
2023-06-17T13:57:02.125Z,18.62
2023-06-17T13:59:29.855Z,19.06
2023-06-17T14:01:57.385Z,19.34
2023-06-17T14:04:25.034Z,19.33
2023-06-17T14:06:52.799Z,19.90
2023-06-17T14:09:20.463Z,20.52
2023-06-17T14:11:48.885Z,20.27
2023-06-17T14:14:16.544Z,19.66
2023-06-17T14:16:44.377Z,20.29
2023-06-17T14:19:12.071Z,20.49
2023-06-17T14:21:39.694Z,20.50
2023-06-17T14:24:12.473Z,20.68
2023-06-17T14:26:42.272Z,20.75
2023-06-17T14:29:10.952Z,20.43
2023-06-17T14:31:39.318Z,21.11
2023-06-17T14:34:06.912Z,21.65
2023-06-17T14:36:34.502Z,21.40
2023-06-17T14:39:02.668Z,21.33
2023-06-17T14:41:33.555Z,21.61
2023-06-17T14:44:01.373Z,21.02
2023-06-17T14:46:29.109Z,22.25
2023-06-17T14:48:56.760Z,22.50
2023-06-17T14:51:24.299Z,23.02
2023-06-17T14:53:51.828Z,21.57
2023-06-17T14:56:29.725Z,22.22
2023-06-17T14:58:58.224Z,23.12
2023-06-17T15:01:30.350Z,22.14
2023-06-17T15:03:58.219Z,22.94
2023-06-17T15:06:25.879Z,20.88
2023-06-17T15:09:08.649Z,22.15
2023-06-17T15:11:36.527Z,23.24
2023-06-17T15:14:04.119Z,22.67
2023-06-17T15:16:31.661Z,24.46
2023-06-17T15:18:59.325Z,23.26
2023-06-17T15:21:26.909Z,23.34
2023-06-17T15:23:54.472Z,23.40
2023-06-17T15:26:22.211Z,23.74
2023-06-17T15:28:49.745Z,22.06
2023-06-17T15:31:17.336Z,24.54
2023-06-17T15:33:44.973Z,22.76
2023-06-17T15:36:12.533Z,22.80
2023-06-17T15:38:40.039Z,23.06
2023-06-17T15:41:07.605Z,22.81
2023-06-17T15:43:35.231Z,23.21
2023-06-17T15:46:03.015Z,23.19
2023-06-17T15:48:31.064Z,23.18
2023-06-17T15:50:58.628Z,23.03
2023-06-17T15:53:26.464Z,23.91
2023-06-17T15:55:53.994Z,23.04
2023-06-17T15:58:21.545Z,23.13
2023-06-17T16:00:49.393Z,23.87
2023-06-17T16:03:37.392Z,23.02
2023-06-17T16:06:05.270Z,25.77
2023-06-17T16:08:32.823Z,24.52
2023-06-17T16:11:00.439Z,24.81
2023-06-17T16:13:28.093Z,25.46
2023-06-17T16:15:56.512Z,25.23
2023-06-17T16:18:24.231Z,24.97
2023-06-17T16:20:51.932Z,24.08
2023-06-17T16:23:19.466Z,24.95
2023-06-17T16:25:55.527Z,24.96
2023-06-17T16:28:24.182Z,25.37
2023-06-17T16:30:51.808Z,24.24
2023-06-17T16:33:19.373Z,25.05
2023-06-17T16:35:46.974Z,25.15
2023-06-17T16:38:14.597Z,24.79
2023-06-17T16:40:42.240Z,24.14
2023-06-17T16:43:09.879Z,24.77
2023-06-17T16:45:38.304Z,25.32
2023-06-17T16:48:08.039Z,24.75
2023-06-17T16:50:37.426Z,25.17
2023-06-17T16:53:05.000Z,25.34
2023-06-17T16:55:33.605Z,24.87
2023-06-17T16:58:01.570Z,26.02
2023-06-17T17:00:30.603Z,25.93
2023-06-17T17:02:58.991Z,25.23
2023-06-17T17:05:26.684Z,24.44
2023-06-17T17:07:55.146Z,24.87
2023-06-17T17:10:24.820Z,25.39
2023-06-17T17:12:53.382Z,26.69
2023-06-17T17:15:21.611Z,26.19
2023-06-17T17:17:49.966Z,26.79
2023-06-17T17:20:17.832Z,26.19
2023-06-17T17:22:46.660Z,27.18
2023-06-17T17:25:14.512Z,27.02
2023-06-17T17:27:42.513Z,27.16
2023-06-17T17:30:11.225Z,26.96
2023-06-17T17:32:39.017Z,27.82
2023-06-17T17:35:07.307Z,29.03
2023-06-17T17:37:35.690Z,29.23
2023-06-17T17:40:03.481Z,29.27
2023-06-17T17:42:31.040Z,29.80
2023-06-17T17:44:58.582Z,30.05
2023-06-17T17:47:26.183Z,30.29
2023-06-17T17:49:53.735Z,29.91
2023-06-17T17:52:21.736Z,31.81
2023-06-17T17:55:01.179Z,33.08
2023-06-17T17:57:30.231Z,34.01
2023-06-17T17:59:57.861Z,34.54
2023-06-17T18:02:26.461Z,35.61
2023-06-17T18:04:54.173Z,36.77
2023-06-17T18:07:21.829Z,37.07
2023-06-17T18:09:49.456Z,38.06
2023-06-17T18:12:17.214Z,37.54
2023-06-17T18:14:44.747Z,37.19
2023-06-17T18:17:12.750Z,39.47
2023-06-17T18:19:40.713Z,41.84
2023-06-17T18:22:08.245Z,44.63
2023-06-17T18:24:35.917Z,46.38
2023-06-17T18:27:03.635Z,49.31
2023-06-17T18:29:31.667Z,51.92
2023-06-17T18:31:59.174Z,53.29
2023-06-17T18:34:26.747Z,54.86
2023-06-17T18:36:54.762Z,55.45
2023-06-17T18:39:22.329Z,57.28
2023-06-17T18:41:49.800Z,59.37
2023-06-17T18:44:17.338Z,61.88
2023-06-17T18:46:44.926Z,64.08
2023-06-17T18:49:22.277Z,66.08
2023-06-17T18:51:50.834Z,67.72
2023-06-17T18:54:18.766Z,72.08
2023-06-17T18:56:46.552Z,76.29
2023-06-17T18:59:15.554Z,80.11
2023-06-17T19:01:43.633Z,81.12
2023-06-17T19:04:11.862Z,82.59
2023-06-17T19:06:39.965Z,83.57
2023-06-17T19:09:07.698Z,83.57
2023-06-17T19:11:35.719Z,84.38
2023-06-17T19:14:03.640Z,84.95
2023-06-17T19:16:31.533Z,86.81
2023-06-17T19:18:59.257Z,86.92
2023-06-17T19:21:26.957Z,87.28
2023-06-17T19:23:54.549Z,88.86
2023-06-17T19:26:22.305Z,88.78
2023-06-17T19:28:49.815Z,90.90
2023-06-17T19:31:17.363Z,91.94
2023-06-17T19:33:45.581Z,93.43
2023-06-17T19:36:13.316Z,94.33
2023-06-17T19:38:40.842Z,95.11
2023-06-17T19:41:08.383Z,95.90
2023-06-17T19:43:36.825Z,96.96
2023-06-17T19:46:05.057Z,99.29
2023-06-17T19:48:32.686Z,99.83
2023-06-17T19:51:01.236Z,100.00
2023-06-17T19:53:28.971Z,100.00
2023-06-17T19:55:57.062Z,99.04
2023-06-17T19:58:25.194Z,97.38
2023-06-17T20:00:53.751Z,96.16
2023-06-17T20:03:21.521Z,96.62
2023-06-17T20:05:49.155Z,96.23
2023-06-17T20:08:16.725Z,96.41
2023-06-17T20:10:44.280Z,96.57
2023-06-17T20:13:12.003Z,96.91
2023-06-17T20:15:39.563Z,97.42
2023-06-17T20:18:07.434Z,97.06
2023-06-17T20:20:35.183Z,97.71
2023-06-17T20:23:02.764Z,98.33
2023-06-17T20:25:30.532Z,99.83
2023-06-17T20:27:58.043Z,100.00
2023-06-17T20:30:26.022Z,100.00
2023-06-17T20:32:53.686Z,100.00
2023-06-17T20:35:21.435Z,100.00
2023-06-17T20:37:49.015Z,100.00
2023-06-17T20:40:16.642Z,100.00
2023-06-17T20:42:44.200Z,100.00
2023-06-17T20:45:12.247Z,100.00
2023-06-17T20:47:39.887Z,100.00
2023-06-17T20:50:08.035Z,100.00
2023-06-17T20:52:37.069Z,100.00
2023-06-17T20:55:05.041Z,100.00
2023-06-17T20:57:32.555Z,100.00
2023-06-17T21:00:00.241Z,100.00
2023-06-17T21:02:28.062Z,100.00
2023-06-17T21:04:56.933Z,100.00
2023-06-17T21:07:24.585Z,100.00
2023-06-17T21:09:52.715Z,100.00
2023-06-17T21:12:21.898Z,100.00
2023-06-17T21:14:49.861Z,100.00
2023-06-17T21:17:17.781Z,100.00
2023-06-17T21:19:45.615Z,100.00
2023-06-17T21:22:13.281Z,100.00
2023-06-17T21:24:42.083Z,100.00
2023-06-17T21:27:10.841Z,100.00
2023-06-17T21:29:39.559Z,100.00
2023-06-17T21:32:09.484Z,100.00
2023-06-17T21:34:38.159Z,100.00
2023-06-17T21:37:07.637Z,100.00
2023-06-17T21:39:35.387Z,100.00
2023-06-17T21:42:03.066Z,100.00
2023-06-17T21:44:32.661Z,100.00
2023-06-17T21:47:01.862Z,100.00
2023-06-17T21:49:29.466Z,100.00
2023-06-17T21:51:58.438Z,100.00
2023-06-17T21:54:26.000Z,100.00
2023-06-17T21:56:53.818Z,100.00
2023-06-17T21:59:21.379Z,100.00
2023-06-17T22:01:48.939Z,100.00
2023-06-17T22:04:16.537Z,100.00
2023-06-17T22:06:44.249Z,100.00
2023-06-17T22:09:12.098Z,100.00
2023-06-17T22:11:39.773Z,100.00
2023-06-17T22:14:08.487Z,100.00
2023-06-17T22:16:37.041Z,100.00
2023-06-17T22:19:04.568Z,100.00
2023-06-17T22:21:32.124Z,100.00
2023-06-17T22:23:59.752Z,100.00
2023-06-17T22:26:29.138Z,100.00
2023-06-17T22:28:56.645Z,100.00
2023-06-17T22:31:24.171Z,100.00
2023-06-17T22:33:51.779Z,100.00
2023-06-17T22:36:19.369Z,100.00
2023-06-17T22:38:46.902Z,100.00
2023-06-17T22:41:14.564Z,100.00
2023-06-17T22:43:42.248Z,100.00
2023-06-17T22:46:11.265Z,100.00
2023-06-17T22:48:39.063Z,100.00
2023-06-17T22:51:07.499Z,100.00
2023-06-17T22:53:35.420Z,100.00
2023-06-17T22:56:03.505Z,100.00
2023-06-17T22:58:31.152Z,100.00
2023-06-17T23:00:58.753Z,100.00
2023-06-17T23:03:26.521Z,100.00
2023-06-17T23:05:54.129Z,100.00
2023-06-17T23:08:21.663Z,100.00
2023-06-17T23:10:49.209Z,100.00
2023-06-17T23:13:16.849Z,100.00
2023-06-17T23:15:44.608Z,100.00
2023-06-17T23:18:12.325Z,100.00
2023-06-17T23:20:39.988Z,100.00
2023-06-17T23:23:08.156Z,100.00
2023-06-17T23:25:35.850Z,100.00
2023-06-17T23:28:03.431Z,100.00
2023-06-17T23:30:31.092Z,100.00
2023-06-17T23:32:58.661Z,100.00
2023-06-17T23:35:26.256Z,100.00
2023-06-17T23:37:53.804Z,100.00
2023-06-17T23:40:21.770Z,100.00
2023-06-17T23:42:49.653Z,100.00
2023-06-17T23:45:17.632Z,100.00
2023-06-17T23:47:45.317Z,100.00
2023-06-17T23:50:13.036Z,100.00
2023-06-17T23:52:40.669Z,100.00
2023-06-17T23:55:08.650Z,100.00
2023-06-17T23:57:36.298Z,100.00
